Time;durP1;ratioP1;P1;durP2;ratioP2;P2;SDS_P1;SDS_P2;PMS_P1;PMS_P2;Temp;Humidity;BMP_temperature;BMP_pressure;BME280_temperature;BME280_humidity;BME280_pressure;Samples;Min_cycle;Max_cycle;Signal;HPM_P1;HPM_P2
2023/09/08 00:00:56;;;;;;;9.87;8.17;;;18.80;17.70;;;;;;5026873;28;20489;-65
2023/09/08 00:03:23;;;;;;;11.07;9.17;;;18.80;17.70;;;;;;5025759;28;20512;-64
2023/09/08 00:05:50;;;;;;;13.80;9.60;;;18.80;17.60;;;;;;5024700;28;20808;-64
2023/09/08 00:08:17;;;;;;;13.03;9.40;;;18.80;17.80;;;;;;5026523;28;20467;-65
2023/09/08 00:10:44;;;;;;;11.23;9.47;;;18.70;17.80;;;;;;5025685;28;20463;-65
2023/09/08 00:13:12;;;;;;;10.17;8.63;;;18.70;17.80;;;;;;5024813;28;20486;-64
2023/09/08 00:15:39;;;;;;;10.97;9.07;;;18.70;17.90;;;;;;5023734;28;20463;-64
2023/09/08 00:18:05;;;;;;;11.77;9.87;;;18.60;17.90;;;;;;5024458;28;20478;-65
2023/09/08 00:20:32;;;;;;;10.83;9.60;;;18.60;17.90;;;;;;5024116;28;20483;-65
2023/09/08 00:22:59;;;;;;;11.73;9.57;;;18.60;18.00;;;;;;5024420;28;20521;-65
2023/09/08 00:25:26;;;;;;;13.70;9.77;;;18.60;18.10;;;;;;5027221;28;20479;-65
2023/09/08 00:27:52;;;;;;;12.60;10.10;;;18.60;18.10;;;;;;5027167;28;20473;-65
2023/09/08 00:30:20;;;;;;;12.30;9.90;;;18.50;18.00;;;;;;5025188;28;20463;-65
2023/09/08 00:32:47;;;;;;;12.33;9.53;;;18.50;18.00;;;;;;5023342;28;20835;-65
2023/09/08 00:35:14;;;;;;;11.43;10.20;;;18.50;18.10;;;;;;5024823;28;20484;-64
2023/09/08 00:37:39;;;;;;;18.30;11.00;;;18.50;18.20;;;;;;5025509;28;20463;-65
2023/09/08 00:40:08;;;;;;;13.27;10.07;;;18.40;18.00;;;;;;5025922;28;20489;-65
2023/09/08 00:42:35;;;;;;;12.53;9.97;;;18.40;18.20;;;;;;5022045;28;20467;-65
2023/09/08 00:45:02;;;;;;;13.73;9.93;;;18.30;18.30;;;;;;5022067;28;20501;-65
2023/09/08 00:47:30;;;;;;;11.10;9.73;;;18.30;18.60;;;;;;5022217;28;20467;-65
2023/09/08 00:49:57;;;;;;;14.07;10.50;;;18.20;18.70;;;;;;5026087;28;20462;-65
2023/09/08 00:52:24;;;;;;;15.63;9.33;;;18.20;18.70;;;;;;5024197;28;20483;-65
2023/09/08 00:54:51;;;;;;;13.80;10.20;;;18.20;18.80;;;;;;5023082;28;20486;-65
2023/09/08 00:57:18;;;;;;;14.50;10.93;;;18.20;18.80;;;;;;5027245;28;20844;-65
2023/09/08 00:59:45;;;;;;;26.33;11.03;;;18.20;18.90;;;;;;5021778;28;20483;-65
2023/09/08 01:02:12;;;;;;;13.03;10.60;;;18.10;18.90;;;;;;5020693;28;20846;-64
2023/09/08 01:04:41;;;;;;;10.90;9.70;;;18.10;19.20;;;;;;5023977;28;20910;-64
2023/09/08 01:07:08;;;;;;;15.77;10.00;;;18.00;19.20;;;;;;5024987;28;20475;-64
2023/09/08 01:09:36;;;;;;;11.80;9.53;;;18.00;19.50;;;;;;5026357;28;20466;-64
2023/09/08 01:12:05;;;;;;;11.07;9.80;;;17.90;19.60;;;;;;5027180;28;20490;-65
2023/09/08 01:14:32;;;;;;;13.13;11.30;;;17.80;19.80;;;;;;5024044;28;20850;-64
2023/09/08 01:16:59;;;;;;;12.63;11.00;;;17.80;19.80;;;;;;5020845;28;20475;-65
2023/09/08 01:19:25;;;;;;;13.07;11.27;;;17.80;19.90;;;;;;5023369;28;20463;-65
2023/09/08 01:22:25;;;;;;;12.10;10.40;;;17.80;20.00;;;;;;5024188;28;20477;-64
2023/09/08 01:25:24;;;;;;;13.20;11.10;;;17.80;20.40;;;;;;5025012;28;20487;-65
2023/09/08 01:27:52;;;;;;;17.30;11.00;;;17.80;20.50;;;;;;4960501;28;20477;-65
2023/09/08 01:30:20;;;;;;;14.00;11.50;;;17.80;20.50;;;;;;5009907;28;20466;-65
2023/09/08 01:32:48;;;;;;;14.30;11.50;;;17.80;20.70;;;;;;5025211;28;21157;-65
2023/09/08 01:35:15;;;;;;;13.77;10.60;;;17.70;20.80;;;;;;5024839;28;20462;-66
2023/09/08 01:37:42;;;;;;;14.20;11.37;;;17.70;20.90;;;;;;5024677;28;20467;-64
2023/09/08 01:40:10;;;;;;;17.13;11.40;;;17.70;21.10;;;;;;5023891;28;21317;-64
2023/09/08 01:42:39;;;;;;;14.77;10.97;;;17.70;21.20;;;;;;5023801;28;20529;-64
2023/09/08 01:45:06;;;;;;;14.67;11.33;;;17.70;21.10;;;;;;5022836;28;20529;-66
2023/09/08 01:47:33;;;;;;;13.30;10.50;;;17.60;21.00;;;;;;5022690;28;20471;-64
2023/09/08 01:50:00;;;;;;;14.20;11.77;;;17.60;21.00;;;;;;5024002;28;20470;-66
2023/09/08 01:52:27;;;;;;;15.70;12.57;;;17.60;21.80;;;;;;5025194;28;20959;-66
2023/09/08 01:54:54;;;;;;;14.33;11.27;;;17.60;21.30;;;;;;5023749;28;20477;-66
2023/09/08 01:57:21;;;;;;;12.70;10.80;;;17.60;21.30;;;;;;5021336;28;20534;-66
2023/09/08 01:59:49;;;;;;;13.50;11.30;;;17.60;21.20;;;;;;5024026;28;20498;-66
2023/09/08 02:02:16;;;;;;;15.30;11.43;;;17.50;21.30;;;;;;5023217;28;20482;-64
2023/09/08 02:04:42;;;;;;;14.23;11.17;;;17.50;21.40;;;;;;5023674;28;20497;-64
2023/09/08 02:07:09;;;;;;;16.00;12.90;;;17.50;21.60;;;;;;5025818;28;20494;-66
2023/09/08 02:09:37;;;;;;;16.70;12.23;;;17.50;21.60;;;;;;5020824;28;20470;-65
2023/09/08 02:12:04;;;;;;;18.13;13.90;;;17.50;21.50;;;;;;5024081;28;20467;-66
2023/09/08 02:14:31;;;;;;;14.20;12.13;;;17.50;21.50;;;;;;5020070;28;20494;-65
2023/09/08 02:16:59;;;;;;;14.00;12.13;;;17.50;21.50;;;;;;5022717;28;20459;-65
2023/09/08 02:19:26;;;;;;;14.93;12.07;;;17.50;21.50;;;;;;5026037;28;20462;-64
2023/09/08 02:21:53;;;;;;;16.23;13.80;;;17.50;21.60;;;;;;5028044;28;20485;-65
2023/09/08 02:24:21;;;;;;;15.20;12.07;;;17.40;21.50;;;;;;5027270;28;20483;-65
2023/09/08 02:26:48;;;;;;;15.47;12.40;;;17.40;21.60;;;;;;5028285;28;20470;-66
2023/09/08 02:29:14;;;;;;;15.97;11.50;;;17.40;21.50;;;;;;5030379;28;20474;-65
2023/09/08 02:31:41;;;;;;;14.03;11.70;;;17.40;21.60;;;;;;5027069;28;20474;-65
2023/09/08 02:34:11;;;;;;;14.57;12.33;;;17.40;21.70;;;;;;5021784;28;20514;-65
2023/09/08 02:36:37;;;;;;;14.10;12.60;;;17.30;21.80;;;;;;5027611;28;20467;-65
2023/09/08 02:39:06;;;;;;;12.90;10.57;;;17.30;21.80;;;;;;5027998;28;20492;-65
2023/09/08 02:41:33;;;;;;;16.40;11.70;;;17.30;22.00;;;;;;5028233;28;20557;-64
2023/09/08 02:44:00;;;;;;;14.87;13.17;;;17.30;22.10;;;;;;5027258;28;20475;-64
2023/09/08 02:46:26;;;;;;;15.30;11.90;;;17.30;22.30;;;;;;5025226;28;20468;-65
2023/09/08 02:48:53;;;;;;;19.30;14.40;;;17.20;22.30;;;;;;5027685;28;20463;-65
2023/09/08 02:51:21;;;;;;;15.90;14.27;;;17.20;22.30;;;;;;5022323;23;20495;-67
2023/09/08 02:53:48;;;;;;;18.50;14.77;;;17.30;22.50;;;;;;5005503;28;20488;-67
2023/09/08 02:56:15;;;;;;;17.77;15.13;;;17.20;22.30;;;;;;5005944;28;20467;-67
2023/09/08 02:58:41;;;;;;;15.37;13.70;;;17.20;22.40;;;;;;5003806;28;20464;-67
2023/09/08 03:01:13;;;;;;;15.27;13.07;;;17.10;22.40;;;;;;5007537;28;20499;-67
2023/09/08 03:03:40;;;;;;;16.40;12.80;;;17.10;22.60;;;;;;5007449;28;20859;-68
2023/09/08 03:06:07;;;;;;;14.97;13.07;;;17.10;22.60;;;;;;5002268;28;20472;-67
2023/09/08 03:08:36;;;;;;;15.20;12.27;;;17.10;23.00;;;;;;5003391;28;20542;-67
2023/09/08 03:11:03;;;;;;;15.37;12.17;;;17.10;23.50;;;;;;5007101;28;20464;-67
2023/09/08 03:13:30;;;;;;;13.70;12.17;;;17.10;23.70;;;;;;5007365;28;20499;-67
2023/09/08 03:15:57;;;;;;;17.30;13.30;;;17.00;24.00;;;;;;5005468;28;20471;-67
2023/09/08 03:18:24;;;;;;;15.83;12.13;;;17.00;24.10;;;;;;5002185;28;20881;-67
2023/09/08 03:20:51;;;;;;;14.50;11.77;;;17.00;24.20;;;;;;5008045;28;20484;-67
2023/09/08 03:23:18;;;;;;;14.83;13.03;;;16.90;24.30;;;;;;5007589;28;20872;-67
2023/09/08 03:25:46;;;;;;;14.00;11.40;;;16.80;24.30;;;;;;5005436;28;20467;-67
2023/09/08 03:28:13;;;;;;;16.07;12.43;;;16.90;24.40;;;;;;5005506;28;20968;-67
2023/09/08 03:30:39;;;;;;;14.90;12.60;;;16.90;24.60;;;;;;5006225;28;20467;-67
2023/09/08 03:33:06;;;;;;;17.67;13.93;;;16.90;24.50;;;;;;5005352;28;20518;-67
2023/09/08 03:35:33;;;;;;;15.47;12.73;;;16.90;24.40;;;;;;5005808;28;20480;-67
2023/09/08 03:37:59;;;;;;;15.07;12.70;;;16.80;24.50;;;;;;5005649;28;21110;-69
2023/09/08 03:40:26;;;;;;;15.77;12.87;;;16.80;24.50;;;;;;5006517;28;20502;-69
2023/09/08 03:42:54;;;;;;;15.20;13.23;;;16.80;24.80;;;;;;5004416;28;20475;-69
2023/09/08 03:45:21;;;;;;;14.10;11.80;;;16.80;25.00;;;;;;5005681;28;20467;-68
2023/09/08 03:47:48;;;;;;;15.57;12.93;;;16.90;25.10;;;;;;5007394;28;21231;-67
2023/09/08 03:50:15;;;;;;;15.50;12.83;;;16.70;25.60;;;;;;5006514;28;20494;-67
2023/09/08 03:52:41;;;;;;;16.93;13.50;;;16.70;25.10;;;;;;5006065;28;20984;-67
2023/09/08 03:55:08;;;;;;;13.63;11.60;;;16.60;25.10;;;;;;5003717;28;20475;-67
2023/09/08 03:57:35;;;;;;;16.40;12.40;;;16.60;26.20;;;;;;5007803;28;20478;-67
2023/09/08 04:00:06;;;;;;;14.93;12.30;;;16.50;25.80;;;;;;5005707;28;20866;-67
2023/09/08 04:02:33;;;;;;;18.87;14.07;;;16.50;26.10;;;;;;5000864;28;20504;-67
2023/09/08 04:04:59;;;;;;;15.57;13.90;;;16.50;26.30;;;;;;4997887;28;21203;-70
2023/09/08 04:07:26;;;;;;;19.73;15.20;;;16.50;26.90;;;;;;4998774;28;21003;-69
2023/09/08 04:09:53;;;;;;;20.20;16.77;;;16.50;27.20;;;;;;5005945;28;20464;-69
2023/09/08 04:12:20;;;;;;;21.30;16.03;;;16.50;27.40;;;;;;5009163;28;20835;-69
2023/09/08 04:14:46;;;;;;;17.50;14.10;;;16.40;27.50;;;;;;5002724;28;21194;-70
2023/09/08 04:17:14;;;;;;;20.27;15.10;;;16.40;27.40;;;;;;5003626;28;20498;-69
2023/09/08 04:19:41;;;;;;;15.23;13.63;;;16.40;27.30;;;;;;4998480;28;20460;-70
2023/09/08 04:22:08;;;;;;;15.03;13.33;;;16.40;27.10;;;;;;5003534;28;21011;-71
2023/09/08 04:24:36;;;;;;;16.47;14.17;;;16.40;27.00;;;;;;5004793;28;20483;-70
2023/09/08 04:27:04;;;;;;;14.07;12.63;;;16.30;27.00;;;;;;5003781;28;20562;-71
2023/09/08 04:29:30;;;;;;;17.77;13.93;;;16.30;26.90;;;;;;5004484;28;20469;-72
2023/09/08 04:31:57;;;;;;;16.57;14.07;;;16.20;26.90;;;;;;5002208;28;21006;-72
2023/09/08 04:34:25;;;;;;;22.70;13.27;;;16.20;27.00;;;;;;5002637;28;20483;-72
2023/09/08 04:36:52;;;;;;;20.60;18.40;;;16.10;27.30;;;;;;5003114;28;20464;-71
2023/09/08 04:39:18;;;;;;;20.00;17.87;;;16.00;27.50;;;;;;5004013;28;20844;-71
2023/09/08 04:41:45;;;;;;;20.27;17.40;;;16.00;27.60;;;;;;5001014;28;20491;-71
2023/09/08 04:44:12;;;;;;;19.63;17.60;;;16.00;27.70;;;;;;5004345;28;20480;-71
2023/09/08 04:46:39;;;;;;;20.07;16.13;;;16.00;27.90;;;;;;5008602;28;20475;-71
2023/09/08 04:49:05;;;;;;;17.50;14.83;;;16.00;28.00;;;;;;5004013;28;21102;-71
2023/09/08 04:51:33;;;;;;;18.73;15.87;;;16.10;28.10;;;;;;5001070;28;20963;-70
2023/09/08 04:54:00;;;;;;;19.23;15.90;;;16.10;28.30;;;;;;5003813;28;20523;-71
2023/09/08 04:56:27;;;;;;;18.80;16.40;;;16.10;28.60;;;;;;5002411;28;20468;-71
2023/09/08 04:58:54;;;;;;;18.40;16.50;;;16.10;28.50;;;;;;5004508;28;20471;-72
2023/09/08 05:01:21;;;;;;;19.20;17.20;;;16.10;28.40;;;;;;5005529;28;20510;-71
2023/09/08 05:03:48;;;;;;;19.77;17.67;;;16.10;28.30;;;;;;4999430;28;20487;-70
2023/09/08 05:06:15;;;;;;;21.60;15.83;;;16.20;28.40;;;;;;5003850;28;20460;-71
2023/09/08 05:08:43;;;;;;;19.37;15.90;;;16.20;28.90;;;;;;5006164;28;20460;-70
2023/09/08 05:11:10;;;;;;;17.83;16.03;;;16.30;29.00;;;;;;5001416;28;20463;-69
2023/09/08 05:13:37;;;;;;;18.00;15.30;;;16.40;28.50;;;;;;5001667;28;20484;-73
2023/09/08 05:16:11;;;;;;;19.43;15.23;;;16.60;28.30;;;;;;4998645;28;20487;-72
2023/09/08 05:18:38;;;;;;;19.40;15.90;;;16.80;27.40;;;;;;4996844;28;20949;-71
2023/09/08 05:21:04;;;;;;;20.47;15.00;;;17.30;26.70;;;;;;5001988;28;20486;-71
2023/09/08 05:23:31;;;;;;;17.07;13.53;;;17.80;25.50;;;;;;5003117;28;20480;-71
2023/09/08 05:26:00;;;;;;;17.10;13.50;;;18.40;24.00;;;;;;5004549;28;20459;-71
2023/09/08 05:28:26;;;;;;;14.90;13.30;;;18.80;22.50;;;;;;5005783;28;20834;-70
2023/09/08 05:30:53;;;;;;;18.47;13.57;;;19.20;21.30;;;;;;5001331;28;20483;-71
2023/09/08 05:33:20;;;;;;;16.70;11.83;;;19.50;20.30;;;;;;5003679;28;21298;-71
2023/09/08 05:35:47;;;;;;;15.20;11.97;;;19.80;20.00;;;;;;5002451;28;20479;-72
2023/09/08 05:38:14;;;;;;;13.97;11.77;;;20.00;19.10;;;;;;5002454;28;20942;-70
2023/09/08 05:40:41;;;;;;;15.17;12.53;;;20.20;18.60;;;;;;5000294;28;20468;-70
2023/09/08 05:43:09;;;;;;;13.00;11.40;;;20.50;18.30;;;;;;5000532;28;21008;-71
2023/09/08 05:45:35;;;;;;;12.07;10.30;;;20.70;17.60;;;;;;5005604;28;20463;-71
2023/09/08 05:48:03;;;;;;;14.33;11.00;;;20.90;17.20;;;;;;5004205;28;21251;-71
2023/09/08 05:50:29;;;;;;;14.93;10.33;;;21.10;17.00;;;;;;4999678;28;20483;-71
2023/09/08 05:52:56;;;;;;;13.27;10.63;;;21.30;16.00;;;;;;5001950;28;20483;-70
2023/09/08 05:55:23;;;;;;;13.10;10.57;;;21.40;15.40;;;;;;5007640;28;20463;-70
2023/09/08 05:57:49;;;;;;;23.20;10.23;;;21.60;14.60;;;;;;5006370;28;20847;-71
2023/09/08 06:00:18;;;;;;;12.00;10.67;;;21.90;13.70;;;;;;5006322;28;20467;-69
2023/09/08 06:02:45;;;;;;;12.30;10.00;;;22.50;12.90;;;;;;5006785;28;20874;-71
2023/09/08 06:05:12;;;;;;;12.67;11.27;;;23.00;11.80;;;;;;5005194;28;20934;-71
2023/09/08 06:07:38;;;;;;;11.67;10.47;;;23.30;11.00;;;;;;5006794;28;20464;-72
2023/09/08 06:10:06;;;;;;;12.60;11.23;;;23.60;10.20;;;;;;5006708;28;20471;-72
2023/09/08 06:12:33;;;;;;;14.93;12.70;;;24.00;9.20;;;;;;5009091;28;20464;-72
2023/09/08 06:14:59;;;;;;;15.17;12.67;;;24.80;7.70;;;;;;5005493;28;20488;-71
2023/09/08 06:17:27;;;;;;;15.17;11.73;;;25.80;5.40;;;;;;5007375;28;20464;-71
2023/09/08 06:19:54;;;;;;;12.50;11.17;;;26.90;3.30;;;;;;5005407;28;20470;-70
2023/09/08 06:22:21;;;;;;;14.33;11.33;;;28.00;1.50;;;;;;5001126;28;20490;-68
2023/09/08 06:24:47;;;;;;;13.33;11.67;;;29.10;1.00;;;;;;5006587;28;20492;-69
2023/09/08 06:27:15;;;;;;;13.13;11.73;;;30.30;1.00;;;;;;5006135;28;20468;-68
2023/09/08 06:29:43;;;;;;;11.73;10.33;;;31.50;1.00;;;;;;5010571;28;20794;-68
2023/09/08 06:32:10;;;;;;;12.83;10.07;;;32.60;1.00;;;;;;5007722;28;20498;-68
2023/09/08 06:34:39;;;;;;;11.73;10.10;;;33.70;1.00;;;;;;5003153;28;20487;-69
2023/09/08 06:37:05;;;;;;;11.90;9.50;;;34.70;1.00;;;;;;4997370;28;20478;-68
2023/09/08 06:39:32;;;;;;;10.00;8.70;;;35.60;1.00;;;;;;4997724;28;20468;-69
2023/09/08 06:41:59;;;;;;;13.03;9.33;;;36.50;1.00;;;;;;5000150;28;20502;-70
2023/09/08 06:44:25;;;;;;;11.33;10.23;;;37.30;1.00;;;;;;4995591;28;20503;-71
2023/09/08 06:46:52;;;;;;;10.47;8.93;;;38.10;1.00;;;;;;4995966;28;20464;-71
2023/09/08 06:49:19;;;;;;;10.87;9.80;;;38.90;1.00;;;;;;4990933;28;20471;-72
2023/09/08 06:51:48;;;;;;;10.30;8.90;;;39.60;1.00;;;;;;4992503;28;20483;-73
2023/09/08 06:54:15;;;;;;;11.00;9.90;;;40.50;1.00;;;;;;4991626;28;20491;-72
2023/09/08 06:56:42;;;;;;;9.43;8.53;;;41.40;1.00;;;;;;4994766;28;20469;-72
2023/09/08 06:59:09;;;;;;;10.90;9.80;;;42.10;1.00;;;;;;4998451;28;20607;-72
2023/09/08 07:01:36;;;;;;;12.30;8.93;;;42.80;1.00;;;;;;4991140;28;20494;-72
2023/09/08 07:04:02;;;;;;;12.40;9.40;;;43.30;1.00;;;;;;4991712;28;20489;-73
2023/09/08 07:06:29;;;;;;;10.57;9.47;;;43.60;1.00;;;;;;4998873;28;20472;-71
2023/09/08 07:08:57;;;;;;;10.03;8.93;;;43.80;1.00;;;;;;5003115;28;21227;-71
2023/09/08 07:11:24;;;;;;;9.47;8.47;;;44.30;1.00;;;;;;5007623;28;20464;-70
2023/09/08 07:13:51;;;;;;;9.80;8.80;;;45.10;1.00;;;;;;5005447;28;20998;-71
2023/09/08 07:16:18;;;;;;;10.07;7.97;;;45.70;1.00;;;;;;5005252;28;20467;-71
2023/09/08 07:18:44;;;;;;;10.83;8.17;;;46.20;1.00;;;;;;5008695;28;20478;-70
2023/09/08 07:21:11;;;;;;;8.93;8.13;;;46.70;1.00;;;;;;5007479;28;20853;-69
2023/09/08 07:23:38;;;;;;;11.23;9.00;;;47.00;1.00;;;;;;5002504;28;20499;-70
2023/09/08 07:26:06;;;;;;;8.83;8.03;;;47.60;1.00;;;;;;5005158;28;20463;-73
2023/09/08 07:28:34;;;;;;;10.50;8.80;;;48.00;1.00;;;;;;5008182;28;20460;-71
2023/09/08 07:31:04;;;;;;;10.80;8.40;;;48.40;1.00;;;;;;5008517;28;20472;-72
2023/09/08 07:33:30;;;;;;;8.40;7.50;;;48.70;1.00;;;;;;5003968;28;20487;-71
2023/09/08 07:35:57;;;;;;;8.70;7.90;;;49.00;1.00;;;;;;5008953;28;20460;-72
2023/09/08 07:38:24;;;;;;;9.30;8.33;;;49.30;1.00;;;;;;5007100;28;20467;-72
2023/09/08 07:40:50;;;;;;;8.70;7.90;;;49.70;1.00;;;;;;5001137;28;20472;-72
2023/09/08 07:43:19;;;;;;;8.80;7.90;;;49.90;1.00;;;;;;4998408;28;20483;-72
2023/09/08 07:45:45;;;;;;;9.80;8.50;;;50.10;1.00;;;;;;5002910;28;20471;-71
2023/09/08 07:48:12;;;;;;;11.40;8.40;;;50.40;1.00;;;;;;4999717;28;20470;-73
2023/09/08 07:50:39;;;;;;;9.13;8.17;;;50.60;1.00;;;;;;5003331;28;20467;-73
2023/09/08 07:53:05;;;;;;;8.93;8.10;;;50.80;1.00;;;;;;4997912;28;20493;-73
2023/09/08 07:55:32;;;;;;;8.70;7.90;;;50.90;1.00;;;;;;5003626;28;20482;-73
2023/09/08 07:57:59;;;;;;;12.03;7.40;;;50.80;1.00;;;;;;5003610;28;20467;-71
2023/09/08 08:00:27;;;;;;;9.10;8.30;;;51.00;1.00;;;;;;4998763;28;20455;-72
2023/09/08 08:02:55;;;;;;;9.67;8.87;;;51.20;1.00;;;;;;5002671;28;21022;-75
2023/09/08 08:05:23;;;;;;;9.03;8.23;;;51.60;1.00;;;;;;5001526;28;20829;-72
2023/09/08 08:07:50;;;;;;;9.93;8.93;;;51.60;1.00;;;;;;5005628;28;20466;-72
2023/09/08 08:10:17;;;;;;;8.87;8.03;;;51.60;1.00;;;;;;4999967;28;20485;-72
2023/09/08 08:12:44;;;;;;;12.00;8.80;;;51.70;1.00;;;;;;5003276;28;20971;-72
2023/09/08 08:15:11;;;;;;;9.13;8.33;;;52.00;1.00;;;;;;4999990;28;20954;-71
2023/09/08 08:17:40;;;;;;;9.50;7.40;;;51.90;1.00;;;;;;5003340;28;20472;-71
2023/09/08 08:20:09;;;;;;;7.50;6.70;;;52.40;1.00;;;;;;5002390;28;20475;-71
2023/09/08 08:22:37;;;;;;;9.67;8.53;;;52.80;1.00;;;;;;4999718;28;20494;-73
2023/09/08 08:25:04;;;;;;;9.63;8.43;;;53.20;1.00;;;;;;4999267;28;20490;-73
2023/09/08 08:27:31;;;;;;;9.10;8.20;;;53.40;1.00;;;;;;5000628;28;20495;-73
2023/09/08 08:29:59;;;;;;;9.30;8.30;;;53.20;1.00;;;;;;5003576;28;20475;-71
2023/09/08 08:32:26;;;;;;;9.00;8.10;;;53.50;1.00;;;;;;5005297;28;21081;-73
2023/09/08 08:34:54;;;;;;;9.70;8.80;;;53.40;1.00;;;;;;5005422;28;20891;-73
2023/09/08 08:37:20;;;;;;;9.20;8.40;;;53.40;1.00;;;;;;5000568;28;20479;-73
2023/09/08 08:39:47;;;;;;;8.67;7.87;;;53.80;1.00;;;;;;5002408;28;20850;-73
2023/09/08 08:42:14;;;;;;;8.17;7.37;;;54.00;1.00;;;;;;5003752;28;20482;-73
2023/09/08 08:44:42;;;;;;;12.83;8.10;;;54.20;1.00;;;;;;5004618;28;20483;-73
2023/09/08 08:47:10;;;;;;;8.83;7.60;;;54.60;1.00;;;;;;5006079;28;20506;-73
2023/09/08 08:49:38;;;;;;;9.30;8.40;;;54.70;1.00;;;;;;5004441;28;20476;-73
2023/09/08 08:52:08;;;;;;;8.67;7.87;;;55.10;1.00;;;;;;5002088;28;20566;-73
2023/09/08 08:54:38;;;;;;;8.70;7.43;;;55.50;1.00;;;;;;5004197;28;20223;-73
2023/09/08 08:57:05;;;;;;;8.17;7.37;;;55.40;1.00;;;;;;5004411;28;20215;-74
2023/09/08 08:59:32;;;;;;;12.53;7.67;;;55.80;1.00;;;;;;5005035;28;20216;-73
2023/09/08 09:01:59;;;;;;;13.23;7.90;;;55.80;1.00;;;;;;5005096;28;20607;-73
2023/09/08 09:04:26;;;;;;;9.98;7.70;;;55.90;1.00;;;;;;5001060;28;20220;-74
2023/09/08 09:06:54;;;;;;;7.67;6.93;;;56.20;1.00;;;;;;5000045;28;20232;-72
2023/09/08 09:09:24;;;;;;;8.35;7.40;;;56.00;1.00;;;;;;5002427;28;20207;-73
2023/09/08 09:11:51;;;;;;;7.47;6.07;;;55.30;1.00;;;;;;5021283;23;20690;-68
2023/09/08 09:14:18;;;;;;;6.40;5.80;;;54.70;1.00;;;;;;5009564;28;20243;-68
2023/09/08 09:16:47;;;;;;;6.55;5.95;;;55.00;1.00;;;;;;5019393;28;20208;-67
2023/09/08 09:19:20;;;;;;;8.47;7.67;;;55.20;1.00;;;;;;5025929;28;20214;-68
2023/09/08 09:21:50;;;;;;;8.60;6.50;;;54.70;1.00;;;;;;5027548;28;20281;-68
2023/09/08 09:24:17;;;;;;;6.90;6.10;;;54.40;1.00;;;;;;5021837;28;20232;-67
2023/09/08 09:26:45;;;;;;;7.77;6.97;;;54.90;1.00;;;;;;5022068;28;20210;-68
2023/09/08 09:29:16;;;;;;;7.10;6.07;;;55.30;1.00;;;;;;5020731;28;20207;-68
2023/09/08 09:31:53;;;;;;;7.40;5.60;;;55.50;1.00;;;;;;5021406;28;20236;-76
2023/09/08 09:34:21;;;;;;;7.00;6.40;;;55.90;1.00;;;;;;5023855;28;20382;-68
2023/09/08 09:36:49;;;;;;;7.95;5.57;;;56.10;1.00;;;;;;5029398;28;20207;-69
2023/09/08 09:39:18;;;;;;;9.80;6.35;;;56.30;1.00;;;;;;5019950;28;20226;-67
2023/09/08 09:41:47;;;;;;;9.60;6.97;;;56.20;1.00;;;;;;5018118;28;20285;-66
2023/09/08 09:44:14;;;;;;;5.80;5.30;;;55.80;1.00;;;;;;5024439;28;20224;-66
2023/09/08 09:46:44;;;;;;;6.30;5.70;;;55.60;1.00;;;;;;5022238;28;20227;-66
2023/09/08 09:49:12;;;;;;;7.93;7.13;;;55.60;1.00;;;;;;5018680;28;20293;-67
2023/09/08 09:51:42;;;;;;;8.40;5.77;;;55.90;1.00;;;;;;5023274;28;20283;-66
2023/09/08 09:54:09;;;;;;;6.07;5.47;;;55.60;1.00;;;;;;5027771;28;20313;-66
2023/09/08 09:56:38;;;;;;;6.03;5.43;;;55.80;1.00;;;;;;5022727;28;20211;-67
2023/09/08 09:59:09;;;;;;;7.87;5.80;;;56.10;1.00;;;;;;5023064;28;20231;-66
2023/09/08 10:01:36;;;;;;;6.43;5.13;;;56.30;1.00;;;;;;5022373;28;20739;-66
2023/09/08 10:04:04;;;;;;;7.20;5.37;;;56.30;1.00;;;;;;5022352;28;20250;-67
2023/09/08 10:06:32;;;;;;;7.03;5.60;;;56.30;1.00;;;;;;5024698;28;20209;-66
2023/09/08 10:09:01;;;;;;;8.07;5.87;;;56.20;1.00;;;;;;5024269;28;20200;-68
2023/09/08 10:11:31;;;;;;;9.57;5.17;;;55.90;1.00;;;;;;5028186;28;20228;-68
2023/09/08 10:14:00;;;;;;;10.63;5.20;;;55.70;1.00;;;;;;5027920;28;20302;-67
2023/09/08 10:16:35;;;;;;;6.20;4.50;;;55.70;1.00;;;;;;5029072;28;20461;-68
2023/09/08 10:19:04;;;;;;;6.83;5.03;;;55.60;1.00;;;;;;5021736;28;20211;-68
2023/09/08 10:21:33;;;;;;;5.50;5.00;;;55.30;1.00;;;;;;5022498;28;20204;-67
2023/09/08 10:24:08;;;;;;;7.47;5.17;;;55.50;1.00;;;;;;5024710;28;20490;-68
2023/09/08 10:26:37;;;;;;;5.93;4.87;;;55.80;1.00;;;;;;5021607;28;20466;-68
2023/09/08 10:29:04;;;;;;;9.50;5.30;;;55.80;1.00;;;;;;5029417;28;21077;-68
2023/09/08 10:31:32;;;;;;;7.93;5.40;;;55.00;1.00;;;;;;5027053;28;20470;-68
2023/09/08 10:33:59;;;;;;;6.27;5.67;;;54.60;1.00;;;;;;5024427;28;20485;-68
2023/09/08 10:36:27;;;;;;;6.47;5.73;;;54.00;1.00;;;;;;5025400;28;20558;-67
2023/09/08 10:38:56;;;;;;;8.13;5.60;;;53.70;1.00;;;;;;5022928;28;20475;-68
2023/09/08 10:41:31;;;;;;;7.23;5.60;;;53.30;1.00;;;;;;5022467;28;20507;-68
2023/09/08 10:44:01;;;;;;;9.90;5.27;;;52.80;1.00;;;;;;5018478;28;20498;-68
2023/09/08 10:46:29;;;;;;;6.20;5.03;;;52.30;1.00;;;;;;5023899;28;20497;-67
2023/09/08 10:49:03;;;;;;;7.50;5.57;;;51.90;1.00;;;;;;5018573;28;21656;-68
2023/09/08 10:51:30;;;;;;;6.40;5.00;;;51.40;1.00;;;;;;5018726;28;21003;-68
2023/09/08 10:53:57;;;;;;;7.40;5.07;;;50.90;1.00;;;;;;5025354;28;20491;-67
2023/09/08 10:56:28;;;;;;;6.03;5.20;;;50.80;1.00;;;;;;5019888;28;21033;-68
2023/09/08 10:58:55;;;;;;;7.97;5.27;;;50.60;1.00;;;;;;5022836;28;20971;-68
2023/09/08 11:01:26;;;;;;;5.90;5.30;;;50.00;1.00;;;;;;5017219;28;20486;-67
2023/09/08 11:03:53;;;;;;;9.43;6.07;;;49.50;1.00;;;;;;5019548;28;20484;-68
2023/09/08 11:06:23;;;;;;;7.17;5.37;;;49.00;1.00;;;;;;5020791;28;20464;-68
2023/09/08 11:08:52;;;;;;;8.00;5.50;;;48.60;1.00;;;;;;5025002;28;20470;-67
2023/09/08 11:11:20;;;;;;;10.17;4.87;;;48.00;1.00;;;;;;5021388;28;20464;-68
2023/09/08 11:13:47;;;;;;;8.87;6.60;;;47.30;1.00;;;;;;5021307;28;20592;-67
2023/09/08 11:16:14;;;;;;;8.57;6.33;;;45.70;1.00;;;;;;5019337;28;21071;-66
2023/09/08 11:18:42;;;;;;;7.67;6.10;;;43.70;1.00;;;;;;5017988;28;20975;-67
2023/09/08 11:21:10;;;;;;;7.90;7.10;;;42.00;1.00;;;;;;5025274;28;20775;-66
2023/09/08 11:23:39;;;;;;;9.17;6.43;;;40.60;1.00;;;;;;5017797;28;20484;-67
2023/09/08 11:26:08;;;;;;;9.40;7.03;;;39.40;1.00;;;;;;5024237;28;20471;-67
2023/09/08 11:28:35;;;;;;;11.60;6.30;;;38.50;1.00;;;;;;5023659;28;20466;-66
2023/09/08 11:31:03;;;;;;;8.93;6.00;;;37.70;1.00;;;;;;5022866;28;20557;-67
2023/09/08 11:33:38;;;;;;;8.90;6.40;;;37.20;1.00;;;;;;5019527;28;20537;-67
2023/09/08 11:36:13;;;;;;;9.00;7.07;;;36.40;1.00;;;;;;5021167;28;20462;-66
2023/09/08 11:38:43;;;;;;;9.00;6.73;;;36.00;1.00;;;;;;5022813;28;20470;-66
2023/09/08 11:41:09;;;;;;;9.33;6.17;;;35.60;1.00;;;;;;5023375;28;20995;-66
2023/09/08 11:43:37;;;;;;;7.80;6.03;;;35.30;1.00;;;;;;5019825;28;20508;-67
2023/09/08 11:46:04;;;;;;;11.20;6.67;;;35.10;1.00;;;;;;5022895;28;20925;-68
2023/09/08 11:48:32;;;;;;;9.13;6.47;;;34.90;1.00;;;;;;5023077;28;20541;-68
2023/09/08 11:50:59;;;;;;;7.00;5.83;;;34.70;1.00;;;;;;5025944;28;20993;-68
2023/09/08 11:53:27;;;;;;;8.00;6.93;;;34.50;1.00;;;;;;5021287;28;20513;-67
2023/09/08 11:55:55;;;;;;;8.20;6.67;;;34.30;1.00;;;;;;5022139;28;20907;-67
2023/09/08 11:58:23;;;;;;;10.87;6.87;;;34.10;1.00;;;;;;5021882;28;20459;-66
2023/09/08 12:00:51;;;;;;;9.37;6.43;;;33.80;1.00;;;;;;5019608;28;20491;-67
2023/09/08 12:03:18;;;;;;;8.33;7.13;;;33.60;1.00;;;;;;5022555;28;20581;-67
2023/09/08 12:05:51;;;;;;;9.43;7.30;;;33.50;1.00;;;;;;5023865;28;20482;-67
2023/09/08 12:08:18;;;;;;;12.43;7.30;;;33.30;1.00;;;;;;5021215;28;20467;-67
2023/09/08 12:10:45;;;;;;;10.47;6.30;;;33.00;1.00;;;;;;5022130;28;20831;-67
2023/09/08 12:13:24;;;;;;;9.63;6.30;;;32.80;1.00;;;;;;5081700;27;20547;-66
2023/09/08 12:15:50;;;;;;;10.80;7.10;;;32.70;1.00;;;;;;5060781;28;20496;-66
2023/09/08 12:18:17;;;;;;;9.03;7.90;;;32.50;1.00;;;;;;5052961;28;20461;-66
2023/09/08 12:20:45;;;;;;;8.23;7.37;;;32.30;1.00;;;;;;5062273;28;21060;-66
2023/09/08 12:23:18;;;;;;;10.13;7.50;;;32.00;1.00;;;;;;5057000;28;20491;-66
2023/09/08 12:25:48;;;;;;;10.47;6.80;;;31.80;1.00;;;;;;5054082;28;20479;-66
2023/09/08 12:28:16;;;;;;;9.90;7.00;;;31.70;1.00;;;;;;5055028;28;20465;-66
2023/09/08 12:30:44;;;;;;;10.67;8.00;;;31.60;1.00;;;;;;5059130;28;20991;-66
2023/09/08 12:33:13;;;;;;;7.60;6.80;;;31.50;1.00;;;;;;5079237;28;20952;-66
2023/09/08 12:35:39;;;;;;;10.13;6.93;;;31.40;1.00;;;;;;5074974;28;20881;-66
2023/09/08 12:38:07;;;;;;;7.23;6.47;;;31.30;1.00;;;;;;5081295;28;21493;-66
2023/09/08 12:40:36;;;;;;;8.70;6.90;;;31.30;1.00;;;;;;5080634;28;20464;-66
2023/09/08 12:43:03;;;;;;;9.47;6.30;;;31.20;1.00;;;;;;5081480;28;20503;-67